| time (UTC) | temp C | wind direction | speed KPH | gust KPH | rain 1hr cm | rain 24hr cm | rain mn cm | humidity % | barometer mb |
| 20260903100521 | 13 | 300 | 9.7 | 22.5 | 0.00 | 0.00 | 0.00 | 55 | 857.9 |
| 20260903095521 | 13 | 304 | 9.7 | 27.4 | 0.00 | 0.00 | 0.00 | 57 | 857.9 |
| 20260903094134 | 13 | 320 | 11.3 | 29.0 | 0.00 | 0.00 | 0.00 | 59 | 858.0 |
| 20260903093521 | 14 | 296 | 8.0 | 19.3 | 0.00 | 0.00 | 0.00 | 58 | 857.8 |
| 20260903091134 | 13 | 288 | 6.4 | 16.1 | 0.00 | 0.00 | 0.00 | 60 | 857.9 |
| 20260903090521 | 13 | 312 | 8.0 | 24.1 | 0.00 | 0.00 | 0.00 | 61 | 858.0 |
| 20260903085521 | 13 | 310 | 8.0 | 27.4 | 0.00 | 0.00 | 0.00 | 60 | 858.2 |
| 20260903084133 | 13 | 310 | 11.3 | 27.4 | 0.00 | 0.00 | 0.00 | 60 | 858.1 |
| 20260903083521 | 13 | 314 | 12.9 | 30.6 | 0.00 | 0.00 | 0.00 | 61 | 858.0 |
| 20260903082521 | 13 | 317 | 12.9 | 27.4 | 0.00 | 0.00 | 0.00 | 62 | 857.9 |
| 20260903081134 | 13 | 312 | 9.7 | 24.1 | 0.00 | 0.00 | 0.00 | 61 | 857.9 |
| 20260903080521 | 12 | 307 | 11.3 | 24.1 | 0.00 | 0.00 | 0.00 | 63 | 857.9 |
| 20260903075521 | 12 | 314 | 12.9 | 25.7 | 0.00 | 0.00 | 0.00 | 62 | 857.8 |
| 20260903074134 | 12 | 316 | 8.0 | 20.9 | 0.00 | 0.00 | 0.00 | 62 | 857.8 |
| 20260903073520 | 12 | 323 | 8.0 | 19.3 | 0.00 | 0.00 | 0.00 | 64 | 857.8 |
| 20260903072520 | 12 | 304 | 6.4 | 16.1 | 0.00 | 0.00 | 0.00 | 65 | 857.8 |
| 20260903071134 | 12 | 313 | 8.0 | 17.7 | 0.00 | 0.00 | 0.00 | 65 | 857.8 |
| 20260903070521 | 12 | 325 | 14.5 | 25.7 | 0.00 | 0.00 | 0.00 | 63 | 857.7 |
| 20260903065521 | 12 | 325 | 14.5 | 22.5 | 0.00 | 0.00 | 0.00 | 63 | 857.7 |
| 20260903064133 | 12 | 317 | 11.3 | 29.0 | 0.00 | 0.00 | 0.00 | 65 | 857.8 |
| 20260903063520 | 11 | 326 | 8.0 | 24.1 | 0.00 | 0.00 | 0.00 | 64 | 857.8 |
| 20260903062521 | 12 | 317 | 8.0 | 17.7 | 0.00 | 0.00 | 0.00 | 65 | 857.6 |
| 20260903061134 | 11 | 319 | 8.0 | 14.5 | 0.00 | 0.00 | 0.00 | 65 | 857.7 |
| 20260903060521 | 11 | 323 | 9.7 | 20.9 | 0.00 | 0.00 | 0.00 | 65 | 857.6 |
| 20260903055520 | 11 | 316 | 12.9 | 22.5 | 0.00 | 0.00 | 0.00 | 65 | 857.6 |
| 20260903054133 | 11 | 317 | 9.7 | 17.7 | 0.00 | 0.00 | 0.00 | 65 | 857.6 |
| 20260903053520 | 11 | 323 | 16.1 | 24.1 | 0.00 | 0.00 | 0.00 | 64 | 857.5 |
| 20260903052521 | 12 | 326 | 14.5 | 29.0 | 0.00 | 0.00 | 0.00 | 63 | 857.5 |
| 20260903051134 | 11 | 329 | 14.5 | 29.0 | 0.00 | 0.00 | 0.00 | 64 | 857.3 |
| 20260903050520 | 11 | 334 | 14.5 | 22.5 | 0.00 | 0.00 | 0.00 | 63 | 857.3 |
| 20260903045521 | 11 | 326 | 12.9 | 24.1 | 0.00 | 0.00 | 0.00 | 63 | 857.2 |
| 20260903044133 | 11 | 315 | 9.7 | 22.5 | 0.00 | 0.00 | 0.00 | 63 | 857.2 |
| 20260903043520 | 12 | 325 | 16.1 | 29.0 | 0.00 | 0.00 | 0.00 | 62 | 857.1 |
| 20260903042521 | 11 | 324 | 12.9 | 24.1 | 0.00 | 0.00 | 0.00 | 62 | 857.2 |
| 20260903041133 | 11 | 321 | 9.7 | 25.7 | 0.00 | 0.00 | 0.00 | 63 | 857.2 |
| 20260903040521 | 11 | 324 | 9.7 | 19.3 | 0.00 | 0.00 | 0.00 | 63 | 857.2 |
| 20260903035521 | 11 | 323 | 9.7 | 16.1 | 0.00 | 0.00 | 0.00 | 64 | 857.2 |
| 20260903034520 | 11 | 326 | 9.7 | 16.1 | 0.00 | 0.00 | 0.00 | 64 | 857.3 |
| 20260903033520 | 11 | 321 | 8.0 | 16.1 | 0.00 | 0.00 | 0.00 | 64 | 857.2 |
| 20260903032521 | 11 | 311 | 8.0 | 17.7 | 0.00 | 0.00 | 0.00 | 65 | 857.3 |
| 20260903031134 | 11 | 316 | 8.0 | 14.5 | 0.00 | 0.00 | 0.00 | 64 | 857.3 |
| 20260903030521 | 11 | 321 | 8.0 | 16.1 | 0.00 | 0.00 | 0.00 | 64 | 857.3 |
| 20260903025521 | 11 | 317 | 6.4 | 12.9 | 0.00 | 0.00 | 0.00 | 64 | 857.3 |
| 20260903024521 | 11 | 319 | 6.4 | 11.3 | 0.00 | 0.00 | 0.00 | 63 | 857.3 |
| 20260903023521 | 11 | 325 | 6.4 | 11.3 | 0.00 | 0.00 | 0.00 | 62 | 857.3 |
| 20260903022521 | 11 | 320 | 4.8 | 9.7 | 0.00 | 0.00 | 0.00 | 64 | 857.3 |
| 20260903021133 | 11 | 328 | 6.4 | 11.3 | 0.00 | 0.00 | 0.00 | 64 | 857.5 |
| 20260903020521 | 11 | 322 | 6.4 | 9.7 | 0.00 | 0.00 | 0.00 | 64 | 857.5 |
| 20260903015521 | 11 | 326 | 6.4 | 9.7 | 0.00 | 0.00 | 0.00 | 64 | 857.5 |
| 20260903014133 | 11 | 332 | 6.4 | 9.7 | 0.00 | 0.00 | 0.00 | 64 | 857.6 |
| 20260903013520 | 11 | 337 | 4.8 | 8.0 | 0.00 | 0.00 | 0.00 | 65 | 857.6 |
| 20260903012520 | 11 | 318 | 4.8 | 6.4 | 0.00 | 0.00 | 0.00 | 65 | 857.6 |
| 20260903011134 | 11 | 318 | 4.8 | 9.7 | 0.00 | 0.00 | 0.00 | 66 | 857.6 |
| 20260903010521 | 11 | 318 | 3.2 | 6.4 | 0.00 | 0.00 | 0.00 | 67 | 857.6 |
| 20260903005521 | 11 | 317 | 3.2 | 8.0 | 0.00 | 0.00 | 0.00 | 68 | 857.6 |
| 20260903004134 | 11 | 306 | 4.8 | 14.5 | 0.00 | 0.00 | 0.00 | 67 | 857.5 |
| 20260903003521 | 11 | 315 | 6.4 | 14.5 | 0.00 | 0.00 | 0.00 | 65 | 857.6 |
| 20260903002521 | 11 | 312 | 8.0 | 24.1 | 0.00 | 0.00 | 0.00 | 65 | 857.6 |
| 20260903001533 | 11 | 316 | 8.0 | 19.3 | 0.00 | 0.00 | 0.00 | 64 | 857.6 |
| 20260903000520 | 11 | 308 | 6.4 | 12.9 | 0.00 | 0.00 | 0.00 | 66 | 857.6 |
| 20260902235520 | 11 | 319 | 8.0 | 11.3 | 0.00 | 0.00 | 0.00 | 67 | 857.6 |
| 20260902234134 | 11 | 321 | 6.4 | 9.7 | 0.00 | 0.00 | 0.00 | 69 | 857.6 |
| 20260902233520 | 11 | 309 | 4.8 | 8.0 | 0.00 | 0.00 | 0.00 | 70 | 857.6 |
| 20260902232520 | 12 | 308 | 3.2 | 6.4 | 0.00 | 0.00 | 0.00 | 68 | 857.5 |
| 20260902231521 | 12 | 302 | 4.8 | 9.7 | 0.00 | 0.00 | 0.00 | 69 | 857.5 |
| 20260902230520 | 11 | 305 | 4.8 | 9.7 | 0.00 | 0.00 | 0.00 | 71 | 857.4 |
| 20260902225521 | 12 | 306 | 6.4 | 14.5 | 0.00 | 0.00 | 0.00 | 70 | 857.4 |
| 20260902224134 | 12 | 330 | 4.8 | 11.3 | 0.00 | 0.00 | 0.00 | 70 | 857.4 |
| 20260902223521 | 12 | 321 | 4.8 | 9.7 | 0.00 | 0.00 | 0.00 | 72 | 857.4 |
| 20260902222521 | 11 | 330 | 3.2 | 6.4 | 0.00 | 0.00 | 0.00 | 76 | 857.2 |
| 20260902221134 | 11 | 358 | 1.6 | 6.4 | 0.00 | 0.00 | 0.00 | 77 | 857.3 |
| 20260902220520 | 11 | 10 | 3.2 | 8.0 | 0.00 | 0.00 | 0.00 | 77 | 857.3 |
| 20260902215521 | 11 | 20 | 4.8 | 6.4 | 0.00 | 0.00 | 0.00 | 76 | 857.3 |
| 20260902214134 | 11 | 357 | 1.6 | 4.8 | 0.00 | 0.00 | 0.00 | 75 | 857.3 |
| 20260902213520 | 11 | 344 | 3.2 | 6.4 | 0.00 | 0.00 | 0.00 | 75 | 857.3 |
| 20260902211134 | 11 | 348 | 4.8 | 6.4 | 0.00 | 0.00 | 0.00 | 73 | 857.2 |
| 20260902210521 | 11 | 340 | 6.4 | 8.0 | 0.00 | 0.00 | 0.00 | 75 | 857.3 |
| 20260902205521 | 11 | 318 | 3.2 | 8.0 | 0.00 | 0.00 | 0.00 | 76 | 857.3 |
| 20260902204135 | 11 | 3 | 6.4 | 11.3 | 0.00 | 0.00 | 0.00 | 77 | 857.3 |
| 20260902203520 | 11 | 359 | 4.8 | 8.0 | 0.00 | 0.00 | 0.00 | 73 | 857.3 |
| 20260902202521 | 11 | 340 | 4.8 | 8.0 | 0.00 | 0.00 | 0.00 | 73 | 857.3 |
| 20260902201134 | 11 | 344 | 4.8 | 8.0 | 0.00 | 0.00 | 0.00 | 72 | 857.3 |
| 20260902200521 | 11 | 349 | 4.8 | 8.0 | 0.00 | 0.00 | 0.00 | 73 | 857.3 |
| 20260902195521 | 11 | 349 | 8.0 | 9.7 | 0.00 | 0.00 | 0.00 | 72 | 857.3 |
| 20260902194134 | 12 | 338 | 6.4 | 9.7 | 0.00 | 0.00 | 0.00 | 70 | 857.4 |
| 20260902193521 | 12 | 331 | 4.8 | 11.3 | 0.00 | 0.00 | 0.00 | 68 | 857.2 |
| 20260902192520 | 12 | 342 | 8.0 | 11.3 | 0.00 | 0.00 | 0.00 | 67 | 857.2 |
| 20260902191134 | 12 | 348 | 6.4 | 9.7 | 0.00 | 0.00 | 0.00 | 66 | 857.1 |
| 20260902190520 | 12 | 347 | 6.4 | 9.7 | 0.00 | 0.00 | 0.00 | 67 | 857.0 |
| 20260902185521 | 12 | 319 | 3.2 | 4.8 | 0.00 | 0.00 | 0.00 | 67 | 856.8 |
| 20260902184134 | 12 | 340 | 4.8 | 8.0 | 0.00 | 0.00 | 0.00 | 66 | 856.8 |
| 20260902183521 | 12 | 352 | 4.8 | 8.0 | 0.00 | 0.00 | 0.00 | 65 | 856.7 |
| 20260902182521 | 12 | 346 | 4.8 | 8.0 | 0.00 | 0.00 | 0.00 | 66 | 856.6 |
| 20260902181134 | 12 | 299 | 3.2 | 6.4 | 0.00 | 0.00 | 0.00 | 68 | 856.5 |
| 20260902180521 | 12 | 290 | 4.8 | 9.7 | 0.00 | 0.00 | 0.00 | 65 | 856.5 |
| 20260902175521 | 13 | 303 | 4.8 | 6.4 | 0.00 | 0.00 | 0.00 | 63 | 856.3 |
| 20260902174134 | 13 | 271 | 4.8 | 8.0 | 0.00 | 0.00 | 0.00 | 63 | 856.2 |
| 20260902173520 | 13 | 271 | 1.6 | 6.4 | 0.00 | 0.00 | 0.00 | 60 | 856.0 |
| 20260902172521 | 14 | 286 | 1.6 | 6.4 | 0.00 | 0.00 | 0.00 | 59 | 855.9 |
| 20260902171134 | 15 | 319 | 3.2 | 11.3 | 0.00 | 0.00 | 0.00 | 54 | 855.8 |
| 20260902170521 | 15 | 330 | 3.2 | 12.9 | 0.00 | 0.00 | 0.00 | 54 | 855.7 |
| 20260902165521 | 15 | 328 | 4.8 | 14.5 | 0.00 | 0.00 | 0.00 | 53 | 855.7 |
| 20260902164134 | 15 | 313 | 6.4 | 14.5 | 0.00 | 0.00 | 0.00 | 51 | 855.7 |
| 20260902163521 | 16 | 331 | 3.2 | 12.9 | 0.00 | 0.00 | 0.00 | 51 | 855.6 |
| 20260902162521 | 16 | 343 | 3.2 | 14.5 | 0.00 | 0.00 | 0.00 | 50 | 855.7 |
| 20260902161134 | 16 | 18 | 6.4 | 17.7 | 0.00 | 0.00 | 0.00 | 48 | 855.6 |
| 20260902160520 | 16 | 1 | 6.4 | 17.7 | 0.00 | 0.00 | 0.00 | 48 | 855.5 |
| 20260902155521 | 17 | 327 | 3.2 | 12.9 | 0.00 | 0.00 | 0.00 | 43 | 855.6 |
| 20260902154134 | 17 | 355 | 1.6 | 14.5 | 0.00 | 0.00 | 0.00 | 46 | 855.6 |
| 20260902153521 | 17 | 312 | 6.4 | 17.7 | 0.00 | 0.00 | 0.00 | 44 | 855.7 |
| 20260902152520 | 17 | 299 | 8.0 | 24.1 | 0.00 | 0.00 | 0.00 | 39 | 855.7 |
| 20260902151134 | 17 | 296 | 9.7 | 22.5 | 0.00 | 0.00 | 0.00 | 39 | 855.7 |
| 20260902150521 | 16 | 303 | 14.5 | 32.2 | 0.00 | 0.00 | 0.00 | 36 | 855.8 |
| 20260902145521 | 16 | 316 | 19.3 | 33.8 | 0.00 | 0.00 | 0.00 | 34 | 855.7 |
| 20260902144134 | 16 | 316 | 14.5 | 30.6 | 0.00 | 0.00 | 0.00 | 34 | 855.7 |
| 20260902143520 | 16 | 323 | 14.5 | 25.7 | 0.00 | 0.00 | 0.00 | 39 | 855.7 |
| 20260902142521 | 16 | 306 | 14.5 | 30.6 | 0.00 | 0.00 | 0.00 | 39 | 855.8 |
| 20260902141134 | 17 | 295 | 11.3 | 27.4 | 0.00 | 0.00 | 0.00 | 41 | 855.7 |
| 20260902140521 | 17 | 301 | 9.7 | 24.1 | 0.00 | 0.00 | 0.00 | 39 | 855.6 |
| 20260902135521 | 16 | 307 | 9.7 | 20.9 | 0.00 | 0.00 | 0.00 | 38 | 855.7 |
| 20260902134132 | 16 | 306 | 9.7 | 25.7 | 0.00 | 0.00 | 0.00 | 37 | 855.9 |
| 20260902133521 | 16 | 329 | 8.0 | 17.7 | 0.00 | 0.00 | 0.00 | 36 | 855.8 |
| 20260902132521 | 16 | 342 | 3.2 | 14.5 | 0.00 | 0.00 | 0.00 | 37 | 855.8 |
| 20260902131134 | 17 | 47 | 4.8 | 17.7 | 0.00 | 0.00 | 0.00 | 42 | 855.8 |
| 20260902130521 | 16 | 3 | 6.4 | 17.7 | 0.00 | 0.00 | 0.00 | 46 | 856.0 |
| 20260902125521 | 17 | 312 | 4.8 | 16.1 | 0.00 | 0.00 | 0.00 | 46 | 856.0 |
| 20260902124133 | 17 | 300 | 9.7 | 24.1 | 0.00 | 0.00 | 0.00 | 44 | 856.1 |
| 20260902123521 | 17 | 297 | 9.7 | 22.5 | 0.00 | 0.00 | 0.00 | 42 | 856.1 |
| 20260902122521 | 17 | 290 | 6.4 | 17.7 | 0.00 | 0.00 | 0.00 | 42 | 856.1 |
| 20260902121134 | 17 | 268 | 9.7 | 20.9 | 0.00 | 0.00 | 0.00 | 38 | 856.2 |
| 20260902120520 | 17 | 259 | 4.8 | 17.7 | 0.00 | 0.00 | 0.00 | 43 | 856.2 |
| 20260902115520 | 16 | 282 | 6.4 | 16.1 | 0.00 | 0.00 | 0.00 | 42 | 856.3 |
| 20260902114134 | 16 | 304 | 6.4 | 20.9 | 0.00 | 0.00 | 0.00 | 44 | 856.4 |
| 20260902113521 | 17 | 272 | 6.4 | 17.7 | 0.00 | 0.00 | 0.00 | 41 | 856.3 |
| 20260902112521 | 17 | 272 | 3.2 | 14.5 | 0.00 | 0.00 | 0.00 | 42 | 856.4 |
| 20260902111134 | 16 | 265 | 3.2 | 8.0 | 0.00 | 0.00 | 0.00 | 53 | 856.4 |
| 20260902110521 | 15 | 263 | 3.2 | 8.0 | 0.00 | 0.00 | 0.00 | 53 | 856.6 |
| 20260902105520 | 16 | 280 | 3.2 | 9.7 | 0.00 | 0.00 | 0.00 | 54 | 856.6 |
| 20260902104134 | 16 | 264 | 3.2 | 8.0 | 0.00 | 0.00 | 0.00 | 57 | 856.7 |
| 20260902103521 | 14 | 283 | 6.4 | 12.9 | 0.00 | 0.00 | 0.00 | 60 | 856.8 |
| 20260902102520 | 15 | 233 | 6.4 | 9.7 | 0.00 | 0.00 | 0.00 | 58 | 856.8 |
| 20260902101134 | 14 | 283 | 6.4 | 14.5 | 0.00 | 0.00 | 0.00 | 60 | 856.9 |